Time;durP1;ratioP1;P1;durP2;ratioP2;P2;SDS_P1;SDS_P2;PMS_P1;PMS_P2;Temp;Humidity;BMP_temperature;BMP_pressure;BME280_temperature;BME280_humidity;BME280_pressure;Samples;Min_cycle;Max_cycle;Signal;HPM_P1;HPM_P2
2021/07/22 00:01:04;;;;;;;10.13;5.77;;;16.80;93.00;;;;;;6119082;23;20181;-84
2021/07/22 00:03:33;;;;;;;6.93;6.00;;;16.70;93.10;;;;;;6091185;23;20207;-83
2021/07/22 00:06:03;;;;;;;9.43;6.07;;;16.70;93.40;;;;;;6087615;23;20189;-85
2021/07/22 00:08:32;;;;;;;6.80;5.50;;;16.70;93.40;;;;;;6090476;23;20682;-84
2021/07/22 00:11:01;;;;;;;7.07;6.07;;;16.80;93.40;;;;;;6089362;23;20248;-84
2021/07/22 00:13:29;;;;;;;8.67;6.43;;;16.70;93.50;;;;;;6090128;23;20216;-85
2021/07/22 00:15:58;;;;;;;9.33;5.80;;;16.70;93.70;;;;;;6088917;23;20173;-85
2021/07/22 00:18:29;;;;;;;7.70;5.47;;;16.70;93.70;;;;;;6089860;23;20180;-86
2021/07/22 00:20:58;;;;;;;8.53;6.37;;;16.70;94.00;;;;;;6089671;23;20195;-86
2021/07/22 00:23:28;;;;;;;7.20;6.07;;;16.70;93.80;;;;;;6092513;23;20529;-86
2021/07/22 00:25:57;;;;;;;11.80;6.17;;;16.70;94.30;;;;;;6090539;23;20766;-85
2021/07/22 00:28:25;;;;;;;10.73;6.37;;;16.80;93.80;;;;;;6094579;23;20220;-84
2021/07/22 00:30:54;;;;;;;9.17;6.00;;;16.90;93.80;;;;;;6099987;23;20185;-86
2021/07/22 00:33:23;;;;;;;7.87;5.53;;;16.90;93.60;;;;;;6101049;23;20287;-87
2021/07/22 00:35:53;;;;;;;6.93;6.30;;;16.80;93.40;;;;;;6090595;23;20260;-86
2021/07/22 00:38:22;;;;;;;7.73;6.30;;;16.80;93.70;;;;;;6088415;23;20188;-85
2021/07/22 00:40:53;;;;;;;8.10;5.60;;;16.80;93.70;;;;;;6095305;23;20575;-85
2021/07/22 00:43:22;;;;;;;7.63;5.90;;;16.70;93.90;;;;;;6108410;23;20386;-86
2021/07/22 00:45:51;;;;;;;9.97;6.47;;;16.70;94.00;;;;;;6102057;23;20748;-87
2021/07/22 00:48:19;;;;;;;9.50;6.03;;;16.70;94.30;;;;;;6088134;23;20316;-85
2021/07/22 00:50:48;;;;;;;7.93;6.07;;;16.70;94.00;;;;;;6089896;23;20193;-85
2021/07/22 00:53:17;;;;;;;8.87;6.13;;;16.70;94.00;;;;;;6088212;23;20844;-86
2021/07/22 00:55:46;;;;;;;8.60;5.83;;;16.70;94.20;;;;;;6088551;23;20251;-86
2021/07/22 00:58:18;;;;;;;8.53;5.80;;;16.80;94.00;;;;;;6087457;23;20176;-85
2021/07/22 01:00:46;;;;;;;7.47;6.20;;;16.80;94.00;;;;;;6090733;23;20498;-85
2021/07/22 01:03:16;;;;;;;7.87;6.07;;;16.80;94.30;;;;;;6102495;23;20149;-87
2021/07/22 01:05:44;;;;;;;8.30;6.17;;;16.70;94.20;;;;;;6120759;23;20188;-85
2021/07/22 01:08:13;;;;;;;8.57;6.37;;;16.60;94.20;;;;;;6087027;23;20196;-86
2021/07/22 01:10:42;;;;;;;7.27;6.37;;;16.60;94.40;;;;;;6090920;23;20272;-86
2021/07/22 01:13:11;;;;;;;8.90;6.70;;;16.60;94.90;;;;;;6091746;23;20169;-84
2021/07/22 01:15:42;;;;;;;9.47;6.40;;;16.70;95.00;;;;;;6095169;23;20177;-87
2021/07/22 01:18:11;;;;;;;8.83;6.33;;;16.70;94.60;;;;;;6107732;23;20173;-84
2021/07/22 01:20:41;;;;;;;9.40;6.33;;;16.80;94.30;;;;;;6104395;23;20173;-85
2021/07/22 01:23:10;;;;;;;8.47;6.43;;;16.80;94.20;;;;;;6088341;23;20252;-85
2021/07/22 01:25:38;;;;;;;6.97;6.20;;;16.70;94.20;;;;;;6090394;23;20617;-84
2021/07/22 01:28:07;;;;;;;10.43;6.80;;;16.60;94.30;;;;;;6089107;23;20746;-87
2021/07/22 01:30:36;;;;;;;7.47;6.37;;;16.60;95.10;;;;;;6092496;23;20188;-85
2021/07/22 01:33:05;;;;;;;8.80;6.30;;;16.60;95.00;;;;;;6099662;23;20165;-85
2021/07/22 01:35:33;;;;;;;10.20;6.97;;;16.50;95.10;;;;;;6099427;23;20217;-87
2021/07/22 01:38:04;;;;;;;8.17;6.30;;;16.50;95.60;;;;;;6096801;23;20224;-86
2021/07/22 01:40:32;;;;;;;10.07;6.60;;;16.50;96.10;;;;;;6109588;23;20177;-84
2021/07/22 01:43:04;;;;;;;9.27;6.70;;;16.50;95.80;;;;;;6120659;23;20173;-84
2021/07/22 01:45:33;;;;;;;7.93;6.67;;;16.50;95.80;;;;;;6121927;23;20175;-86
2021/07/22 01:48:02;;;;;;;9.27;6.60;;;16.40;96.20;;;;;;6123533;23;20423;-85
2021/07/22 01:50:38;;;;;;;7.83;6.50;;;16.50;96.50;;;;;;6124261;23;20458;-84
2021/07/22 01:53:08;;;;;;;9.77;6.53;;;16.50;96.20;;;;;;6125509;23;20185;-85
2021/07/22 01:55:37;;;;;;;9.07;6.33;;;16.50;96.30;;;;;;6125937;23;20163;-85
2021/07/22 01:58:05;;;;;;;8.43;6.37;;;16.50;96.60;;;;;;6123260;23;20197;-86
2021/07/22 02:00:34;;;;;;;8.63;6.60;;;16.50;96.00;;;;;;6125214;23;20183;-86
2021/07/22 02:03:05;;;;;;;10.07;6.43;;;16.40;96.00;;;;;;6123929;23;20353;-84
2021/07/22 02:05:34;;;;;;;9.03;6.70;;;16.40;96.50;;;;;;6124565;23;20181;-85
2021/07/22 02:08:02;;;;;;;7.67;6.20;;;16.40;96.50;;;;;;6124916;23;20195;-86
2021/07/22 02:10:32;;;;;;;9.63;6.87;;;16.40;96.60;;;;;;6108052;23;20192;-84
2021/07/22 02:13:01;;;;;;;9.00;6.77;;;16.40;97.10;;;;;;6104478;23;20192;-86
2021/07/22 02:15:31;;;;;;;12.33;6.77;;;16.30;96.90;;;;;;6107395;23;20283;-84
2021/07/22 02:18:00;;;;;;;8.03;6.53;;;16.40;97.30;;;;;;6103704;23;20212;-85
2021/07/22 02:20:28;;;;;;;8.50;6.63;;;16.40;97.40;;;;;;6100597;23;20435;-84
2021/07/22 02:22:57;;;;;;;8.70;6.40;;;16.40;97.20;;;;;;6108625;23;20180;-84
2021/07/22 02:25:25;;;;;;;8.73;6.43;;;16.40;97.40;;;;;;6107237;23;20176;-84
2021/07/22 02:27:56;;;;;;;8.73;6.30;;;16.30;97.20;;;;;;6097648;23;20193;-84
2021/07/22 02:30:24;;;;;;;8.83;6.80;;;16.30;97.40;;;;;;6093469;23;20168;-84
2021/07/22 02:32:53;;;;;;;10.53;6.90;;;16.20;97.90;;;;;;6096195;23;20192;-84
2021/07/22 02:35:22;;;;;;;8.83;6.20;;;16.30;98.40;;;;;;6095994;23;20666;-84
2021/07/22 02:37:51;;;;;;;9.47;7.10;;;16.30;97.90;;;;;;6088600;23;20181;-85
2021/07/22 02:40:20;;;;;;;10.80;6.40;;;16.40;97.30;;;;;;6086575;23;20160;-86
2021/07/22 02:42:49;;;;;;;8.77;6.70;;;16.50;97.00;;;;;;6082246;23;20247;-87
2021/07/22 02:45:21;;;;;;;10.00;6.07;;;16.60;96.00;;;;;;6077366;23;20376;-87
2021/07/22 02:47:53;;;;;;;6.80;6.10;;;16.60;95.70;;;;;;6087287;23;20260;-83
2021/07/22 02:50:22;;;;;;;7.40;5.80;;;16.60;95.70;;;;;;6086973;23;20862;-85
2021/07/22 02:52:50;;;;;;;7.77;6.30;;;16.60;95.80;;;;;;6089540;23;20523;-84
2021/07/22 02:55:19;;;;;;;7.77;6.37;;;16.70;95.60;;;;;;6088369;23;20195;-85
2021/07/22 02:57:48;;;;;;;9.27;6.57;;;16.70;95.40;;;;;;6091604;23;20177;-84
2021/07/22 03:00:19;;;;;;;8.50;6.10;;;16.70;95.40;;;;;;6090850;23;20165;-85
2021/07/22 03:02:50;;;;;;;9.10;5.93;;;16.70;95.40;;;;;;6089671;23;20187;-86
2021/07/22 03:05:19;;;;;;;9.00;6.63;;;16.70;95.50;;;;;;6089363;23;20172;-85
2021/07/22 03:07:48;;;;;;;10.70;6.23;;;16.80;95.30;;;;;;6093276;23;20216;-85
2021/07/22 03:10:17;;;;;;;6.90;6.10;;;16.70;95.70;;;;;;6091497;23;20280;-84
2021/07/22 03:12:46;;;;;;;9.00;6.30;;;16.80;95.30;;;;;;6104213;23;20169;-85
2021/07/22 03:15:14;;;;;;;9.83;5.93;;;16.80;95.60;;;;;;6115977;23;20173;-86
2021/07/22 03:17:43;;;;;;;6.30;5.67;;;16.80;95.40;;;;;;6106512;23;20224;-83
2021/07/22 03:20:14;;;;;;;9.80;6.10;;;16.80;95.30;;;;;;6112552;23;20181;-85
2021/07/22 03:22:43;;;;;;;7.43;5.80;;;16.90;95.20;;;;;;6111991;23;20165;-83
2021/07/22 03:25:13;;;;;;;7.77;6.20;;;16.90;95.10;;;;;;6095738;23;20177;-85
2021/07/22 03:27:42;;;;;;;10.40;6.50;;;16.90;95.00;;;;;;6090656;23;20197;-86
2021/07/22 03:30:11;;;;;;;8.43;6.00;;;17.00;95.00;;;;;;6107492;23;20241;-84
2021/07/22 03:32:42;;;;;;;10.23;5.90;;;17.00;94.70;;;;;;6111524;23;20189;-87
2021/07/22 03:35:13;;;;;;;9.47;6.33;;;17.00;94.90;;;;;;6115684;23;20169;-87
2021/07/22 03:37:42;;;;;;;9.17;5.67;;;17.10;94.50;;;;;;6104457;23;20172;-84
2021/07/22 03:40:12;;;;;;;7.93;6.03;;;17.10;94.40;;;;;;6062107;23;20704;-84
2021/07/22 03:42:40;;;;;;;10.83;5.93;;;17.20;94.20;;;;;;6093806;23;20169;-84
2021/07/22 03:45:10;;;;;;;7.63;5.73;;;17.20;94.20;;;;;;6104588;23;20196;-84
2021/07/22 03:47:39;;;;;;;6.80;6.00;;;17.30;94.00;;;;;;6117197;23;20204;-84
2021/07/22 03:50:08;;;;;;;7.37;5.80;;;17.40;93.80;;;;;;6095781;23;20192;-83
2021/07/22 03:52:39;;;;;;;7.63;5.43;;;17.40;93.80;;;;;;6090872;23;20165;-83
2021/07/22 03:55:08;;;;;;;8.20;5.70;;;17.40;93.70;;;;;;6093955;23;20228;-85
2021/07/22 03:57:36;;;;;;;8.73;5.30;;;17.40;93.80;;;;;;6095385;23;20176;-84
2021/07/22 04:00:07;;;;;;;6.83;5.27;;;17.40;93.70;;;;;;6103577;23;20169;-85
2021/07/22 04:02:42;;;;;;;8.20;5.57;;;17.40;93.60;;;;;;6121859;23;20240;-84
2021/07/22 04:05:12;;;;;;;6.50;5.30;;;17.50;93.60;;;;;;6114520;23;20153;-85
2021/07/22 04:07:42;;;;;;;6.67;4.73;;;17.50;93.20;;;;;;6063227;23;20188;-86
2021/07/22 04:10:11;;;;;;;5.57;4.97;;;17.50;93.50;;;;;;6102170;23;20173;-85
2021/07/22 04:12:41;;;;;;;6.27;4.90;;;17.60;93.50;;;;;;6112406;23;20690;-86
2021/07/22 04:15:10;;;;;;;8.50;5.87;;;17.70;92.90;;;;;;6121262;23;20177;-87
2021/07/22 04:17:39;;;;;;;7.33;5.50;;;17.90;92.60;;;;;;6119611;23;20220;-86
2021/07/22 04:20:10;;;;;;;7.73;5.43;;;17.90;92.30;;;;;;6124654;23;20258;-86
2021/07/22 04:22:39;;;;;;;8.17;5.00;;;18.00;92.10;;;;;;6108320;23;20165;-86
2021/07/22 04:25:11;;;;;;;6.77;5.03;;;18.00;92.20;;;;;;6099997;23;20235;-84
2021/07/22 04:27:40;;;;;;;5.90;5.07;;;18.00;92.20;;;;;;6108814;23;20490;-87
2021/07/22 04:30:11;;;;;;;6.10;5.20;;;18.00;92.00;;;;;;6113005;23;20197;-86
2021/07/22 04:32:40;;;;;;;5.80;4.50;;;18.20;91.80;;;;;;6117824;23;20326;-85
2021/07/22 04:35:10;;;;;;;6.20;4.80;;;18.20;91.30;;;;;;6119059;23;20272;-87
2021/07/22 04:37:39;;;;;;;7.97;4.97;;;18.30;91.20;;;;;;6117905;23;20417;-85
2021/07/22 04:40:10;;;;;;;6.17;4.27;;;18.20;91.40;;;;;;6117027;23;20285;-85
2021/07/22 04:42:39;;;;;;;6.30;4.73;;;18.40;91.30;;;;;;6121344;23;20175;-86
2021/07/22 04:45:13;;;;;;;7.00;4.53;;;18.40;91.20;;;;;;6125317;23;20192;-84
2021/07/22 04:47:43;;;;;;;5.53;4.70;;;18.50;91.10;;;;;;6120882;23;20222;-86
2021/07/22 04:50:14;;;;;;;5.60;4.20;;;18.50;90.90;;;;;;6121098;23;21551;-83
2021/07/22 04:52:43;;;;;;;5.03;4.40;;;18.50;90.70;;;;;;6150741;23;20322;-85
2021/07/22 04:55:34;;;;;;;5.60;4.20;;;18.60;90.90;;;;;;6091273;23;20173;-86
2021/07/22 04:58:04;;;;;;;8.10;4.20;;;18.70;90.60;;;;;;6086848;23;20438;-86
2021/07/22 05:00:33;;;;;;;5.77;4.23;;;18.70;90.50;;;;;;6120721;23;20393;-84
2021/07/22 05:03:02;;;;;;;5.47;4.40;;;18.80;90.00;;;;;;6113471;23;20377;-85
2021/07/22 05:05:35;;;;;;;5.27;4.30;;;18.80;90.20;;;;;;6114320;23;20173;-85
2021/07/22 05:08:05;;;;;;;7.70;4.80;;;18.80;90.50;;;;;;6111234;23;20184;-84
2021/07/22 05:10:35;;;;;;;6.80;4.53;;;18.90;90.20;;;;;;6118127;23;20157;-83
2021/07/22 05:13:06;;;;;;;7.33;4.27;;;18.90;90.10;;;;;;6112807;23;20181;-83
2021/07/22 05:15:34;;;;;;;6.97;4.57;;;19.00;90.30;;;;;;6118822;23;20180;-82
2021/07/22 05:18:03;;;;;;;7.80;4.50;;;19.00;90.10;;;;;;6113618;23;20164;-84
2021/07/22 05:20:33;;;;;;;6.93;4.43;;;19.00;90.00;;;;;;6118102;23;20217;-84
2021/07/22 05:23:02;;;;;;;7.40;4.80;;;19.10;90.20;;;;;;6119556;23;20165;-83
2021/07/22 05:25:33;;;;;;;7.07;4.50;;;19.10;90.10;;;;;;6117263;23;20192;-83
2021/07/22 05:28:05;;;;;;;7.03;4.37;;;19.20;90.10;;;;;;6110356;23;20168;-83
2021/07/22 05:30:36;;;;;;;5.57;4.17;;;19.40;89.40;;;;;;6095805;23;20199;-85
2021/07/22 05:33:07;;;;;;;7.73;4.80;;;19.30;89.40;;;;;;6098908;23;20149;-85
2021/07/22 05:35:37;;;;;;;5.73;4.90;;;19.40;89.00;;;;;;6096360;23;20188;-83
2021/07/22 05:38:06;;;;;;;6.33;4.20;;;19.40;88.90;;;;;;6093166;23;20177;-84
2021/07/22 05:40:34;;;;;;;9.50;4.73;;;19.40;88.50;;;;;;6094132;23;20160;-84
2021/07/22 05:43:05;;;;;;;8.17;4.23;;;19.40;89.00;;;;;;6088826;23;20181;-84
2021/07/22 05:45:35;;;;;;;6.47;4.47;;;19.40;88.80;;;;;;6098915;23;20196;-84
2021/07/22 05:48:05;;;;;;;6.23;4.23;;;19.50;88.50;;;;;;6097523;23;20188;-83
2021/07/22 05:50:34;;;;;;;4.80;3.90;;;19.60;89.00;;;;;;6095475;23;20237;-84
2021/07/22 05:53:03;;;;;;;5.90;3.90;;;19.80;88.50;;;;;;6095661;23;20181;-83
2021/07/22 05:55:31;;;;;;;5.77;3.90;;;19.90;87.80;;;;;;6098545;23;20185;-83
2021/07/22 05:58:01;;;;;;;6.27;3.40;;;20.00;86.90;;;;;;6085061;23;20181;-83
2021/07/22 06:00:31;;;;;;;4.80;4.23;;;20.10;87.00;;;;;;6087884;23;20233;-84
2021/07/22 06:03:00;;;;;;;5.27;3.43;;;20.00;86.50;;;;;;6091777;23;20180;-85
2021/07/22 06:05:29;;;;;;;5.13;3.63;;;19.90;87.00;;;;;;6108293;23;20328;-86
2021/07/22 06:08:04;;;;;;;5.30;3.47;;;20.00;86.60;;;;;;6097561;23;20789;-87
2021/07/22 06:10:35;;;;;;;5.73;3.33;;;20.00;86.30;;;;;;6093725;23;20553;-88
2021/07/22 06:13:05;;;;;;;6.17;3.47;;;19.90;86.80;;;;;;6088182;23;20162;-85
2021/07/22 06:15:35;;;;;;;4.77;3.53;;;20.00;87.20;;;;;;6089630;23;20206;-87
2021/07/22 06:18:07;;;;;;;3.40;3.10;;;20.30;87.00;;;;;;6091075;23;20165;-86
2021/07/22 06:20:39;;;;;;;5.33;3.43;;;20.50;86.40;;;;;;6100579;23;20191;-83
2021/07/22 06:23:22;;;;;;;4.17;3.27;;;20.50;85.40;;;;;;6092656;23;20273;-86
2021/07/22 06:25:58;;;;;;;5.03;3.70;;;20.30;85.80;;;;;;6017183;23;20243;-87
2021/07/22 06:28:31;;;;;;;9.35;4.93;;;20.20;85.70;;;;;;6033099;23;20529;-86
2021/07/22 06:31:07;;;;;;;4.88;3.63;;;20.30;86.40;;;;;;6014624;23;20188;-86
2021/07/22 06:33:37;;;;;;;4.57;3.40;;;20.40;86.10;;;;;;5971204;23;20356;-87
2021/07/22 06:36:11;;;;;;;7.23;3.97;;;20.40;85.90;;;;;;6039110;23;20177;-89
2021/07/22 06:38:40;;;;;;;4.43;3.07;;;20.50;86.00;;;;;;6094314;23;20169;-88
2021/07/22 06:41:12;;;;;;;4.90;3.35;;;20.80;85.90;;;;;;6066616;23;20531;-84
2021/07/22 06:43:41;;;;;;;6.00;3.35;;;20.90;85.50;;;;;;6100393;23;20165;-88
2021/07/22 06:46:14;;;;;;;4.43;3.42;;;20.90;84.80;;;;;;6096350;23;20492;-87
2021/07/22 06:48:47;;;;;;;7.68;3.75;;;20.70;85.00;;;;;;6103326;23;20161;-85
2021/07/22 06:51:19;;;;;;;3.88;3.13;;;21.00;85.20;;;;;;6076797;23;20196;-86
2021/07/22 06:53:49;;;;;;;4.55;3.40;;;20.90;84.80;;;;;;6096815;23;20192;-88
2021/07/22 06:56:18;;;;;;;4.30;3.20;;;20.80;84.50;;;;;;6071160;23;20203;-88
2021/07/22 06:58:48;;;;;;;8.55;3.40;;;20.70;85.00;;;;;;6111373;23;20228;-85
2021/07/22 07:01:19;;;;;;;7.32;3.70;;;20.80;85.30;;;;;;6114765;23;20254;-85
2021/07/22 07:03:51;;;;;;;4.57;3.38;;;21.20;84.60;;;;;;6099038;23;20471;-87
2021/07/22 07:06:20;;;;;;;7.43;3.20;;;21.40;84.60;;;;;;6102272;23;20177;-88
2021/07/22 07:08:53;;;;;;;5.43;3.72;;;21.60;84.00;;;;;;6108689;23;20184;-86
2021/07/22 07:11:22;;;;;;;8.98;3.45;;;21.90;83.60;;;;;;6108203;23;20173;-87
2021/07/22 07:13:52;;;;;;;4.90;3.65;;;22.00;83.20;;;;;;6105779;23;20212;-86
2021/07/22 07:16:23;;;;;;;4.22;3.47;;;22.10;83.70;;;;;;6091072;23;20181;-87
2021/07/22 07:18:57;;;;;;;5.30;3.53;;;22.00;83.10;;;;;;6100124;23;20169;-85
2021/07/22 07:21:27;;;;;;;7.03;3.60;;;22.20;83.50;;;;;;6101103;23;20161;-88
2021/07/22 07:23:57;;;;;;;7.63;3.85;;;22.30;82.50;;;;;;6097663;23;20529;-87
2021/07/22 07:26:26;;;;;;;4.57;3.97;;;22.20;83.20;;;;;;6099572;23;20169;-87
2021/07/22 07:28:55;;;;;;;4.93;3.17;;;22.30;82.70;;;;;;6093488;23;20181;-88
2021/07/22 07:31:28;;;;;;;7.63;4.30;;;22.60;82.50;;;;;;6062890;23;20200;-87
2021/07/22 07:34:01;;;;;;;6.13;3.70;;;22.80;81.20;;;;;;6108115;23;20204;-86
2021/07/22 07:36:31;;;;;;;5.78;3.65;;;22.80;81.10;;;;;;6089444;23;20177;-86
2021/07/22 07:39:01;;;;;;;5.65;3.22;;;22.90;81.20;;;;;;6085422;23;20936;-86
2021/07/22 07:41:30;;;;;;;9.98;3.90;;;23.20;81.70;;;;;;6090791;23;20260;-88
2021/07/22 07:44:00;;;;;;;5.05;3.33;;;23.30;81.00;;;;;;6092328;23;20462;-88
2021/07/22 07:46:31;;;;;;;5.10;3.53;;;23.20;81.00;;;;;;6092075;23;20177;-85
2021/07/22 07:49:02;;;;;;;4.63;3.50;;;23.20;80.30;;;;;;6055243;23;20396;-88
2021/07/22 07:51:31;;;;;;;5.32;2.92;;;23.20;80.40;;;;;;6058577;23;20209;-85
2021/07/22 07:54:00;;;;;;;4.07;2.92;;;23.20;79.60;;;;;;6046200;23;20227;-87
2021/07/22 07:59:31;;;;;;;4.93;3.00;;;23.50;78.90;;;;;;6084079;23;20179;-86
2021/07/22 08:02:20;;;;;;;3.30;3.00;;;23.70;79.90;;;;;;6089425;23;20188;-81
2021/07/22 08:05:03;;;;;;;6.22;2.83;;;23.90;79.30;;;;;;6094560;23;20914;-81
2021/07/22 08:07:34;;;;;;;3.85;2.60;;;24.10;78.90;;;;;;6104051;23;20169;-85
2021/07/22 08:13:07;;;;;;;6.85;2.80;;;24.50;77.90;;;;;;6088323;23;20223;-84
2021/07/22 08:15:45;;;;;;;5.90;2.75;;;24.60;77.70;;;;;;6087525;23;20596;-85
2021/07/22 08:24:32;;;;;;;3.10;2.30;;;24.70;75.90;;;;;;6102024;23;20219;-87
2021/07/22 08:27:28;;;;;;;5.32;2.35;;;24.10;74.70;;;;;;6068999;23;20195;-84
2021/07/22 08:30:01;;;;;;;5.45;2.83;;;23.70;75.90;;;;;;6093744;23;20259;-85
2021/07/22 08:32:49;;;;;;;4.55;2.33;;;23.70;76.30;;;;;;6101737;23;20577;-86
2021/07/22 08:35:20;;;;;;;4.10;2.60;;;23.50;75.80;;;;;;6096705;23;20542;-84
2021/07/22 08:37:50;;;;;;;6.60;2.55;;;23.50;76.80;;;;;;6111676;23;20167;-84
2021/07/22 08:40:21;;;;;;;3.50;2.30;;;23.40;76.00;;;;;;6103380;23;20357;-85
2021/07/22 08:42:50;;;;;;;4.15;2.50;;;23.20;76.50;;;;;;6098658;23;20181;-82
2021/07/22 08:45:20;;;;;;;5.95;2.45;;;23.20;77.40;;;;;;6096685;23;20199;-86
2021/07/22 08:47:52;;;;;;;3.10;2.40;;;23.30;77.30;;;;;;6106231;23;20215;-83
2021/07/22 08:50:28;;;;;;;4.05;2.53;;;23.40;76.90;;;;;;6103163;23;20188;-85
2021/07/22 08:52:58;;;;;;;4.68;2.83;;;23.60;76.70;;;;;;6102870;23;20171;-81
2021/07/22 08:55:30;;;;;;;3.78;2.70;;;23.80;76.10;;;;;;6087705;23;20166;-85
2021/07/22 08:57:59;;;;;;;3.92;2.50;;;24.00;76.50;;;;;;6095992;23;20221;-85
2021/07/22 09:00:31;;;;;;;5.10;2.65;;;24.30;76.60;;;;;;6098827;23;20180;-83
2021/07/22 09:03:02;;;;;;;4.47;2.35;;;24.60;74.50;;;;;;6094856;23;20250;-84
2021/07/22 09:05:32;;;;;;;3.60;2.67;;;24.40;73.00;;;;;;6108696;23;20805;-82
2021/07/22 09:08:01;;;;;;;3.17;2.22;;;24.20;74.10;;;;;;6091792;23;20192;-84
2021/07/22 09:10:31;;;;;;;3.75;2.20;;;24.30;73.00;;;;;;6091775;23;20213;-82
2021/07/22 09:13:01;;;;;;;3.53;2.40;;;24.20;72.30;;;;;;6062836;23;20453;-83
2021/07/22 09:15:32;;;;;;;3.33;2.08;;;24.00;73.10;;;;;;6097219;23;20180;-84
2021/07/22 09:18:22;;;;;;;5.85;2.20;;;23.90;72.00;;;;;;6102469;23;20172;-86
2021/07/22 09:20:52;;;;;;;4.03;2.13;;;24.10;73.50;;;;;;6095865;23;20422;-84
2021/07/22 09:23:27;;;;;;;2.85;2.05;;;24.40;72.90;;;;;;6097260;23;20188;-84
2021/07/22 09:26:00;;;;;;;2.20;1.75;;;24.60;72.00;;;;;;6092351;23;20176;-82
2021/07/22 09:28:33;;;;;;;4.35;2.60;;;24.70;70.90;;;;;;6089231;23;20175;-85
2021/07/22 09:31:04;;;;;;;4.07;2.20;;;24.70;70.60;;;;;;6089339;23;20922;-84
2021/07/22 09:33:38;;;;;;;2.90;2.40;;;24.60;70.30;;;;;;6092396;23;20193;-85
2021/07/22 09:36:33;;;;;;;4.97;2.35;;;24.40;70.30;;;;;;6044815;23;20184;-82
2021/07/22 09:39:22;;;;;;;3.67;2.00;;;23.90;70.20;;;;;;6086935;23;20261;-85
2021/07/22 09:42:01;;;;;;;4.40;2.42;;;23.60;70.60;;;;;;6099322;23;20251;-85
2021/07/22 09:44:34;;;;;;;5.18;2.05;;;23.50;69.90;;;;;;6106096;23;20191;-88
2021/07/22 09:47:28;;;;;;;4.60;2.28;;;23.70;70.20;;;;;;6079828;23;20837;-81
2021/07/22 09:50:09;;;;;;;5.13;2.13;;;23.50;69.80;;;;;;6090243;23;20625;-84
2021/07/22 09:52:39;;;;;;;3.35;2.38;;;23.60;70.30;;;;;;6091169;23;20196;-84
2021/07/22 09:58:26;;;;;;;3.83;2.40;;;23.60;70.50;;;;;;6104202;23;20177;-85
2021/07/22 10:00:57;;;;;;;3.47;2.30;;;23.70;71.80;;;;;;6102386;23;20506;-84
2021/07/22 10:03:28;;;;;;;4.68;2.40;;;23.80;71.20;;;;;;6094663;23;20157;-83
2021/07/22 10:06:03;;;;;;;2.92;2.00;;;23.70;70.20;;;;;;6095158;23;20173;-87
2021/07/22 10:08:44;;;;;;;3.28;2.30;;;23.80;70.30;;;;;;6095646;23;20168;-83
2021/07/22 10:11:18;;;;;;;2.85;2.17;;;23.70;69.90;;;;;;6110338;23;20573;-83
2021/07/22 10:13:52;;;;;;;3.13;2.80;;;23.60;70.40;;;;;;6116232;23;20172;-84
2021/07/22 10:16:25;;;;;;;2.40;2.20;;;23.70;71.10;;;;;;6104916;23;20187;-86
2021/07/22 10:19:05;;;;;;;3.95;2.42;;;23.80;70.90;;;;;;6105544;23;20185;-86
2021/07/22 10:21:52;;;;;;;3.90;2.35;;;23.60;71.20;;;;;;6097370;23;20208;-80
2021/07/22 10:24:26;;;;;;;2.80;2.25;;;23.60;71.30;;;;;;6072349;23;20192;-83
2021/07/22 10:26:57;;;;;;;3.15;2.40;;;23.60;70.80;;;;;;6114707;23;20169;-83
2021/07/22 10:35:30;;;;;;;4.93;2.45;;;23.70;70.90;;;;;;6098271;23;20484;-82
2021/07/22 10:45:01;;;;;;;5.05;2.42;;;23.70;71.00;;;;;;6089140;23;20513;-83
2021/07/22 10:48:02;;;;;;;5.25;2.50;;;23.70;71.00;;;;;;6106819;23;20176;-85
2021/07/22 10:51:07;;;;;;;2.65;2.10;;;23.50;71.30;;;;;;6100655;23;20169;-85
2021/07/22 10:56:55;;;;;;;6.38;2.22;;;23.70;70.70;;;;;;6082660;23;20192;-85
2021/07/22 10:59:57;;;;;;;2.50;2.30;;;23.90;69.90;;;;;;6094656;23;20169;-83
2021/07/22 11:02:45;;;;;;;2.45;2.25;;;24.00;70.30;;;;;;6098248;23;20281;-85
2021/07/22 11:06:08;;;;;;;2.50;2.30;;;23.90;70.10;;;;;;6090430;23;20308;-84
2021/07/22 11:08:44;;;;;;;2.75;2.55;;;23.90;70.10;;;;;;6002021;23;20239;-85
2021/07/22 11:11:49;;;;;;;4.97;2.50;;;24.10;69.60;;;;;;5994269;23;20551;-83
2021/07/22 11:14:35;;;;;;;3.30;1.98;;;23.70;68.60;;;;;;5969842;23;20254;-87
2021/07/22 11:17:07;;;;;;;2.38;2.10;;;23.70;69.40;;;;;;6001333;23;20201;-83
2021/07/22 11:19:37;;;;;;;2.35;2.15;;;23.80;69.90;;;;;;5996389;23;20194;-81
2021/07/22 11:22:10;;;;;;;3.28;2.25;;;23.90;68.10;;;;;;5992643;23;20182;-81
2021/07/22 11:25:03;;;;;;;2.65;2.20;;;23.90;67.90;;;;;;5963728;23;20175;-81
2021/07/22 11:27:38;;;;;;;3.28;1.90;;;24.00;66.80;;;;;;6008242;23;20294;-86
2021/07/22 11:30:11;;;;;;;2.80;2.05;;;24.10;66.70;;;;;;5996145;23;20270;-82
2021/07/22 11:32:47;;;;;;;4.20;2.20;;;24.40;68.10;;;;;;5990827;23;20911;-83
2021/07/22 11:35:19;;;;;;;3.08;2.40;;;24.40;67.90;;;;;;5994480;23;20186;-82
2021/07/22 11:37:50;;;;;;;3.13;2.33;;;24.50;67.40;;;;;;5990767;23;20179;-83
2021/07/22 11:40:20;;;;;;;3.80;2.30;;;24.70;67.50;;;;;;6058863;23;20192;-83
2021/07/22 11:42:50;;;;;;;2.83;2.30;;;24.80;65.30;;;;;;6082617;23;20192;-82
2021/07/22 11:45:20;;;;;;;2.30;2.10;;;25.00;66.40;;;;;;6095112;23;20173;-87
2021/07/22 11:47:58;;;;;;;2.53;2.30;;;24.90;65.10;;;;;;6100479;23;20188;-85
2021/07/22 11:50:29;;;;;;;2.45;2.25;;;24.90;64.90;;;;;;6103554;23;20169;-85
2021/07/22 11:52:59;;;;;;;4.25;2.00;;;24.80;63.70;;;;;;6102458;23;20472;-86
2021/07/22 11:55:32;;;;;;;2.92;2.13;;;24.70;64.30;;;;;;6103718;23;20172;-83
2021/07/22 11:58:03;;;;;;;2.58;2.30;;;24.80;64.30;;;;;;6100409;23;20169;-85
2021/07/22 12:00:47;;;;;;;2.88;2.22;;;25.10;63.30;;;;;;6097215;23;20237;-85
2021/07/22 12:03:26;;;;;;;3.30;2.40;;;25.30;63.40;;;;;;6089306;23;20171;-84
2021/07/22 12:05:56;;;;;;;2.47;2.10;;;25.30;64.60;;;;;;6091083;23;20260;-83
2021/07/22 12:08:27;;;;;;;2.70;2.10;;;25.30;64.80;;;;;;6086935;23;20165;-83
2021/07/22 12:11:03;;;;;;;2.80;1.90;;;25.10;63.90;;;;;;6092448;23;20173;-83
2021/07/22 12:13:49;;;;;;;4.25;2.70;;;25.20;63.70;;;;;;6086660;23;20489;-84
2021/07/22 12:16:24;;;;;;;2.40;2.20;;;25.50;64.10;;;;;;6094047;23;20168;-85
2021/07/22 12:18:56;;;;;;;3.38;2.63;;;25.60;64.60;;;;;;6104162;23;20192;-88
2021/07/22 12:21:27;;;;;;;4.20;2.72;;;25.50;64.50;;;;;;6074729;23;20180;-83
2021/07/22 12:24:15;;;;;;;3.97;2.70;;;25.50;63.90;;;;;;6073978;23;20203;-82
2021/07/22 12:26:44;;;;;;;4.10;2.63;;;25.60;64.20;;;;;;6081999;23;20236;-83
2021/07/22 12:29:19;;;;;;;2.63;2.42;;;26.00;63.40;;;;;;6085383;23;21085;-85
2021/07/22 12:31:50;;;;;;;2.90;2.45;;;26.40;63.70;;;;;;6087437;23;20619;-85
2021/07/22 12:34:21;;;;;;;2.70;2.47;;;26.20;63.60;;;;;;6049506;23;20193;-85
2021/07/22 12:36:51;;;;;;;3.30;2.50;;;25.90;63.50;;;;;;6083352;23;20466;-84
2021/07/22 12:39:25;;;;;;;3.10;2.80;;;25.30;63.50;;;;;;6087757;23;20279;-82
2021/07/22 12:41:55;;;;;;;3.00;2.70;;;24.90;63.70;;;;;;6084569;23;20268;-83
2021/07/22 12:44:43;;;;;;;2.70;2.50;;;24.70;63.40;;;;;;6085588;23;20260;-84
2021/07/22 12:47:32;;;;;;;2.83;2.40;;;24.50;63.90;;;;;;6090146;23;20180;-81
2021/07/22 12:50:04;;;;;;;2.92;2.67;;;24.30;64.60;;;;;;6091987;23;20169;-82
2021/07/22 12:52:34;;;;;;;2.90;2.70;;;24.10;64.30;;;;;;6095323;23;20196;-85
2021/07/22 12:55:05;;;;;;;4.13;2.70;;;24.20;65.10;;;;;;6095921;23;20165;-83
2021/07/22 12:57:39;;;;;;;3.33;2.97;;;24.20;65.30;;;;;;6095070;23;20181;-83
2021/07/22 13:00:10;;;;;;;2.42;2.20;;;24.10;64.40;;;;;;6071022;23;20175;-85
2021/07/22 13:02:55;;;;;;;3.10;2.80;;;24.00;64.80;;;;;;6064297;23;20177;-84
2021/07/22 13:05:26;;;;;;;3.67;2.80;;;24.10;65.30;;;;;;6077807;23;20335;-85
2021/07/22 13:07:55;;;;;;;3.25;2.60;;;24.20;65.10;;;;;;6069794;23;20235;-83
2021/07/22 13:10:44;;;;;;;4.07;3.22;;;24.30;65.70;;;;;;6072086;23;20173;-84
2021/07/22 13:13:12;;;;;;;4.80;3.22;;;24.30;65.80;;;;;;6074006;23;20742;-82
2021/07/22 13:15:41;;;;;;;3.50;2.95;;;24.30;66.00;;;;;;6070529;23;20169;-84
2021/07/22 13:18:10;;;;;;;5.80;3.13;;;24.20;66.30;;;;;;6071405;23;20696;-83
2021/07/22 13:20:40;;;;;;;3.95;3.42;;;24.20;66.70;;;;;;6076976;23;20192;-84
2021/07/22 13:23:08;;;;;;;3.03;2.72;;;24.30;67.50;;;;;;6078637;23;20188;-87
2021/07/22 13:25:39;;;;;;;4.13;2.45;;;24.20;67.50;;;;;;6079748;23;20183;-84
2021/07/22 13:28:08;;;;;;;4.10;2.85;;;24.30;68.10;;;;;;6083073;23;20438;-85
2021/07/22 13:30:39;;;;;;;3.20;2.90;;;24.40;68.70;;;;;;6080477;23;20294;-83
2021/07/22 13:33:09;;;;;;;3.85;3.10;;;24.40;68.30;;;;;;6052386;23;20754;-83
2021/07/22 13:35:41;;;;;;;3.00;2.67;;;24.60;68.30;;;;;;6075610;23;21752;-83
2021/07/22 13:38:10;;;;;;;6.00;2.95;;;24.70;67.80;;;;;;6077526;23;20184;-84
2021/07/22 13:40:39;;;;;;;3.40;3.03;;;24.70;67.20;;;;;;6070498;23;20196;-84
2021/07/22 13:43:08;;;;;;;3.00;2.80;;;24.70;67.40;;;;;;6083190;23;20181;-83